Time;durP1;ratioP1;P1;durP2;ratioP2;P2;SDS_P1;SDS_P2;PMS_P1;PMS_P2;Temp;Humidity;BMP_temperature;BMP_pressure;BME280_temperature;BME280_humidity;BME280_pressure;Samples;Min_cycle;Max_cycle;Signal;HPM_P1;HPM_P2
2022/09/13 20:49:25;;;;;;;;;;;;;;;;;;7268000;19;20121;-81
2022/09/13 22:02:38;;;;;;;12.80;5.63;;;;;;;;;;7300708;19;20262;-79
2022/09/13 22:05:04;;;;;;;10.68;5.35;;;;;;;;;;7329409;19;20454;-77
2022/09/13 22:07:29;;;;;;;9.93;5.40;;;;;;;;;;7346994;19;20424;-78
2022/09/13 22:09:54;;;;;;;10.45;5.70;;;;;;;;;;7348591;19;20021;-76
2022/09/13 22:12:22;;;;;;;12.55;5.75;;;;;;;;;;7364953;19;20107;-78
2022/09/13 22:14:47;;;;;;;10.98;5.25;;;;;;;;;;7361990;19;20040;-78
2022/09/13 22:17:12;;;;;;;13.73;5.35;;;;;;;;;;7364103;19;20014;-79
2022/09/13 22:19:37;;;;;;;11.03;5.17;;;;;;;;;;7351525;19;20568;-78
2022/09/13 22:22:02;;;;;;;13.35;5.43;;;;;;;;;;7361491;19;20038;-79
2022/09/13 22:24:30;;;;;;;16.07;5.33;;;;;;;;;;7365585;19;20027;-78
2022/09/13 22:26:56;;;;;;;10.65;4.47;;;;;;;;;;7356138;19;20025;-79
2022/09/13 22:29:22;;;;;;;8.48;3.80;;;;;;;;;;7359337;19;20463;-78
2022/09/13 22:31:48;;;;;;;10.65;3.63;;;;;;;;;;7359746;19;20011;-79
2022/09/13 22:34:15;;;;;;;8.35;3.35;;;;;;;;;;7365179;19;20014;-79
2022/09/13 22:36:40;;;;;;;8.85;2.53;;;;;;;;;;7356170;19;20082;-77
2022/09/13 22:39:05;;;;;;;7.60;2.97;;;;;;;;;;7369173;19;20122;-78
2022/09/13 22:41:32;;;;;;;7.65;3.55;;;;;;;;;;7367817;19;20015;-78
2022/09/13 22:43:58;;;;;;;8.43;5.05;;;;;;;;;;7370358;19;20439;-78
2022/09/13 22:46:28;;;;;;;11.15;5.05;;;;;;;;;;7359048;19;20014;-79
2022/09/13 22:48:54;;;;;;;8.48;4.63;;;;;;;;;;7342331;19;20465;-78
2022/09/13 22:51:19;;;;;;;12.55;5.32;;;;;;;;;;7358365;19;19998;-78
2022/09/13 22:53:45;;;;;;;9.52;4.88;;;;;;;;;;7368054;19;20021;-79
2022/09/13 22:56:12;;;;;;;10.82;5.22;;;;;;;;;;7362283;19;20365;-79
2022/09/13 22:58:37;;;;;;;8.30;4.72;;;;;;;;;;7351561;19;20078;-79
2022/09/13 23:01:04;;;;;;;13.43;4.70;;;;;;;;;;7360006;19;20109;-79
2022/09/13 23:03:29;;;;;;;11.13;5.05;;;;;;;;;;7347893;19;20847;-79
2022/09/13 23:05:54;;;;;;;11.43;4.70;;;;;;;;;;7372267;19;20010;-79
2022/09/13 23:08:20;;;;;;;9.87;4.30;;;;;;;;;;7363714;19;20047;-78
2022/09/13 23:10:45;;;;;;;10.33;5.40;;;;;;;;;;7360103;19;20379;-79
2022/09/13 23:13:10;;;;;;;8.02;4.47;;;;;;;;;;7368797;19;20010;-79
2022/09/13 23:15:36;;;;;;;10.67;4.53;;;;;;;;;;7361139;19;20109;-78
2022/09/13 23:18:01;;;;;;;9.60;4.00;;;;;;;;;;7356484;19;20014;-78
2022/09/13 23:20:26;;;;;;;9.07;4.03;;;;;;;;;;7366067;19;20263;-78
2022/09/13 23:22:51;;;;;;;8.07;3.17;;;;;;;;;;7373315;19;20259;-79
2022/09/13 23:25:16;;;;;;;7.57;2.93;;;;;;;;;;7375911;19;20513;-77
2022/09/13 23:27:42;;;;;;;8.38;2.30;;;;;;;;;;7376942;19;20274;-77
2022/09/13 23:30:07;;;;;;;7.63;2.78;;;;;;;;;;7371330;19;20086;-78
2022/09/13 23:32:32;;;;;;;9.02;3.33;;;;;;;;;;7371004;19;20010;-79
2022/09/13 23:34:58;;;;;;;7.73;4.00;;;;;;;;;;7369129;19;21014;-78
2022/09/13 23:37:23;;;;;;;12.03;4.30;;;;;;;;;;7373895;19;20011;-78
2022/09/13 23:39:48;;;;;;;9.10;4.05;;;;;;;;;;7363128;19;20553;-76
2022/09/13 23:42:13;;;;;;;7.77;4.13;;;;;;;;;;7379256;19;20776;-78
2022/09/13 23:44:38;;;;;;;9.77;4.10;;;;;;;;;;7372414;19;20014;-78
2022/09/13 23:47:03;;;;;;;8.95;3.72;;;;;;;;;;7363776;19;20345;-78
2022/09/13 23:49:29;;;;;;;13.70;4.70;;;;;;;;;;7371088;19;20019;-78
2022/09/13 23:51:54;;;;;;;19.50;5.20;;;;;;;;;;7358996;19;20654;-77
2022/09/13 23:54:19;;;;;;;11.53;5.33;;;;;;;;;;7379394;19;20756;-78
2022/09/13 23:56:44;;;;;;;16.07;5.43;;;;;;;;;;7355422;19;20849;-76
2022/09/13 23:59:10;;;;;;;11.18;4.28;;;;;;;;;;7376920;19;20038;-77
